Time;durP1;ratioP1;P1;durP2;ratioP2;P2;SDS_P1;SDS_P2;PMS_P1;PMS_P2;Temp;Humidity;BMP_temperature;BMP_pressure;BME280_temperature;BME280_humidity;BME280_pressure;Samples;Min_cycle;Max_cycle;Signal;HPM_P1;HPM_P2
2021/12/28 00:01:17;;;;;;;84.27;25.27;;;26.10;2201.60;;;;;;5073416;28;20074;-64
2021/12/28 00:03:45;;;;;;;151.77;31.83;;;26.20;2201.60;;;;;;5074824;28;20096;-63
2021/12/28 00:06:12;;;;;;;134.53;31.03;;;26.20;2201.60;;;;;;5075369;28;20025;-65
2021/12/28 00:08:38;;;;;;;124.13;33.67;;;26.20;2201.60;;;;;;5072495;28;20091;-64
2021/12/28 00:11:05;;;;;;;193.10;33.33;;;26.20;2201.60;;;;;;5074527;28;20473;-65
2021/12/28 00:13:33;;;;;;;215.23;34.60;;;26.30;2201.60;;;;;;5073226;28;20128;-64
2021/12/28 00:16:13;;;;;;;227.07;34.17;;;26.30;2201.60;;;;;;5074926;28;20060;-64
2021/12/28 00:18:39;;;;;;;217.03;34.17;;;26.30;2201.60;;;;;;5072363;28;20051;-60
2021/12/28 00:21:07;;;;;;;311.27;38.10;;;26.30;2201.60;;;;;;5072895;28;20484;-65
2021/12/28 00:23:41;;;;;;;207.90;32.50;;;26.30;2201.60;;;;;;5073690;28;20025;-64
2021/12/28 00:26:13;;;;;;;435.80;44.47;;;26.30;2201.60;;;;;;5073706;28;20097;-66
2021/12/28 00:28:40;;;;;;;221.00;37.63;;;26.30;2201.60;;;;;;5073976;28;20036;-59
2021/12/28 00:31:07;;;;;;;161.57;30.50;;;26.30;2201.60;;;;;;5072649;28;20064;-59
2021/12/28 00:33:33;;;;;;;174.20;29.43;;;26.20;2201.60;;;;;;5073136;28;20012;-58
2021/12/28 00:35:59;;;;;;;185.90;30.37;;;26.20;2201.60;;;;;;5071374;28;20084;-65
2021/12/28 00:38:26;;;;;;;321.07;36.30;;;26.20;2201.60;;;;;;5072165;28;20028;-66
2021/12/28 00:40:58;;;;;;;209.57;34.73;;;26.20;2201.60;;;;;;5072853;28;20033;-59
2021/12/28 00:43:26;;;;;;;125.53;30.13;;;26.20;2201.60;;;;;;5073414;28;20058;-66
2021/12/28 00:45:51;;;;;;;206.33;41.23;;;26.30;2201.60;;;;;;5072212;28;20428;-58
2021/12/28 00:48:17;;;;;;;136.77;35.03;;;26.40;2201.60;;;;;;5073197;28;20056;-58
2021/12/28 00:50:44;;;;;;;81.23;28.80;;;26.30;2201.60;;;;;;5073027;28;20066;-58
2021/12/28 00:53:11;;;;;;;52.00;22.23;;;26.40;2201.60;;;;;;5073198;28;20082;-59
2021/12/28 00:55:37;;;;;;;97.60;26.17;;;26.50;2201.60;;;;;;5073110;28;20024;-59
2021/12/28 00:58:04;;;;;;;170.97;29.50;;;26.30;2201.60;;;;;;5073167;28;20099;-59
2021/12/28 01:00:33;;;;;;;134.60;28.73;;;26.50;2201.60;;;;;;5071817;28;20032;-66
2021/12/28 01:03:01;;;;;;;142.67;27.80;;;51.20;2227.20;;;;;;5073422;28;20017;-60
2021/12/28 01:05:28;;;;;;;82.23;24.83;;;51.20;2227.20;;;;;;5073445;28;20028;-63
2021/12/28 01:07:55;;;;;;;153.87;30.43;;;51.20;2227.20;;;;;;5073416;28;20027;-58
2021/12/28 01:10:24;;;;;;;107.70;26.73;;;51.20;2227.20;;;;;;5073262;28;20024;-58
2021/12/28 01:12:52;;;;;;;175.83;27.43;;;51.20;2227.20;;;;;;5073317;28;20027;-58
2021/12/28 01:15:19;;;;;;;236.33;29.07;;;26.50;2201.60;;;;;;5073127;28;20029;-58
2021/12/28 01:17:45;;;;;;;82.00;23.53;;;26.30;2201.60;;;;;;5073275;28;20028;-58
2021/12/28 01:20:12;;;;;;;66.43;22.10;;;26.30;2201.60;;;;;;5072854;28;20054;-59
2021/12/28 01:22:39;;;;;;;161.37;24.90;;;26.40;2201.60;;;;;;5073119;28;20426;-58
2021/12/28 01:25:07;;;;;;;56.87;19.63;;;26.40;2201.60;;;;;;5072425;28;20025;-58
2021/12/28 01:27:33;;;;;;;149.47;22.00;;;26.40;2201.60;;;;;;5071457;28;20027;-58
2021/12/28 01:29:59;;;;;;;102.40;22.23;;;26.30;2201.60;;;;;;5064317;28;20045;-65
2021/12/28 01:32:25;;;;;;;90.47;23.60;;;26.50;2201.60;;;;;;5073092;28;20031;-59
2021/12/28 01:34:51;;;;;;;142.37;25.97;;;26.50;2201.60;;;;;;5072886;28;20603;-66
2021/12/28 01:37:17;;;;;;;170.63;28.13;;;26.50;2201.60;;;;;;5072853;28;20025;-65
2021/12/28 01:39:43;;;;;;;170.17;34.07;;;26.40;2201.60;;;;;;5072736;28;20093;-59
2021/12/28 01:42:09;;;;;;;227.97;36.07;;;26.30;2201.60;;;;;;5072563;28;20072;-58
2021/12/28 01:44:36;;;;;;;187.23;26.93;;;26.40;2201.60;;;;;;5072788;28;20389;-61
2021/12/28 01:47:02;;;;;;;175.47;26.07;;;26.30;2201.60;;;;;;5071040;28;20115;-60
2021/12/28 01:49:29;;;;;;;176.40;27.60;;;26.30;2201.60;;;;;;5073348;28;20099;-60
2021/12/28 01:51:55;;;;;;;195.73;29.03;;;26.30;2201.60;;;;;;5073425;28;20016;-59
2021/12/28 01:54:21;;;;;;;263.23;33.33;;;26.30;2201.60;;;;;;5073735;28;20385;-58
2021/12/28 01:56:48;;;;;;;229.20;38.63;;;26.30;2201.60;;;;;;5073289;28;20054;-59
2021/12/28 01:59:19;;;;;;;305.40;52.83;;;26.30;2201.60;;;;;;5073442;28;20033;-58
2021/12/28 02:01:46;;;;;;;177.87;38.00;;;26.30;2201.60;;;;;;5073534;28;20043;-59
2021/12/28 02:04:18;;;;;;;116.63;28.67;;;26.40;2201.60;;;;;;5073265;28;20021;-58
2021/12/28 02:06:45;;;;;;;255.20;33.47;;;26.40;2201.60;;;;;;5073658;28;20451;-59
2021/12/28 02:09:11;;;;;;;249.43;35.60;;;26.50;2201.60;;;;;;5073368;28;20020;-62
2021/12/28 02:11:38;;;;;;;229.93;39.10;;;26.50;2201.60;;;;;;5073780;28;20381;-66
2021/12/28 02:14:06;;;;;;;361.80;43.93;;;51.20;2227.20;;;;;;5073416;28;20508;-59
2021/12/28 02:16:33;;;;;;;326.90;41.30;;;51.20;2227.20;;;;;;5073353;28;20027;-58
2021/12/28 02:19:01;;;;;;;267.40;39.73;;;26.50;2201.60;;;;;;5073722;28;20066;-61
2021/12/28 02:21:31;;;;;;;143.10;32.87;;;26.50;2201.60;;;;;;5073467;28;20048;-59
2021/12/28 02:24:01;;;;;;;147.43;36.03;;;51.20;2227.20;;;;;;5073394;28;20025;-59
2021/12/28 02:26:27;;;;;;;192.10;39.23;;;51.20;2227.20;;;;;;5073273;28;20025;-59
2021/12/28 02:28:54;;;;;;;499.43;55.87;;;51.30;2227.20;;;;;;5073282;28;20021;-59
2021/12/28 02:31:20;;;;;;;288.47;44.23;;;51.30;2227.20;;;;;;5072956;28;20040;-59
2021/12/28 02:33:48;;;;;;;522.80;55.97;;;51.30;2227.20;;;;;;5073251;28;20020;-65
2021/12/28 02:36:15;;;;;;;276.20;42.63;;;51.30;2227.20;;;;;;5073515;28;20028;-59
2021/12/28 02:38:42;;;;;;;102.60;34.57;;;51.30;2227.20;;;;;;5077216;28;20025;-61
2021/12/28 02:41:10;;;;;;;148.33;38.07;;;51.30;2227.20;;;;;;5077179;28;20502;-59
2021/12/28 02:43:37;;;;;;;99.40;35.17;;;51.30;2227.20;;;;;;5077539;28;20078;-58
2021/12/28 02:46:05;;;;;;;119.83;34.73;;;51.40;2227.20;;;;;;5077227;28;20029;-65
2021/12/28 02:48:33;;;;;;;136.03;34.83;;;51.40;2227.20;;;;;;5076978;28;20039;-64
2021/12/28 02:51:03;;;;;;;273.20;40.13;;;51.50;2227.20;;;;;;5077097;28;20032;-59
2021/12/28 02:53:29;;;;;;;154.17;33.90;;;51.50;2227.20;;;;;;5077180;28;20016;-59
2021/12/28 02:55:56;;;;;;;110.90;32.03;;;51.50;2227.20;;;;;;5077039;28;20031;-65
2021/12/28 02:58:27;;;;;;;114.33;30.57;;;51.50;2227.20;;;;;;5076734;28;20113;-59
2021/12/28 03:00:55;;;;;;;108.87;32.03;;;51.60;2227.20;;;;;;5076632;28;20071;-59
2021/12/28 03:03:23;;;;;;;98.17;29.60;;;51.60;2227.20;;;;;;5076854;28;20029;-59
2021/12/28 03:05:52;;;;;;;89.13;29.37;;;51.60;2227.20;;;;;;5076836;28;20028;-59
2021/12/28 03:08:20;;;;;;;198.23;31.63;;;51.60;2227.20;;;;;;5076905;28;20032;-59
2021/12/28 03:10:47;;;;;;;369.97;40.50;;;51.50;2227.20;;;;;;5076715;28;20033;-58
2021/12/28 03:13:16;;;;;;;122.60;31.17;;;51.30;2227.20;;;;;;5076583;28;20024;-59
2021/12/28 03:15:42;;;;;;;270.00;36.50;;;51.40;2227.20;;;;;;5076679;28;20055;-59
2021/12/28 03:18:08;;;;;;;194.90;34.37;;;51.50;2227.20;;;;;;5076539;28;20052;-58
2021/12/28 03:20:35;;;;;;;100.03;29.73;;;51.40;2227.20;;;;;;5076398;28;20504;-59
2021/12/28 03:23:01;;;;;;;173.33;33.20;;;51.40;2227.20;;;;;;5075199;28;20025;-61
2021/12/28 03:25:27;;;;;;;357.60;38.87;;;51.50;2227.20;;;;;;5076460;28;20031;-59
2021/12/28 03:27:53;;;;;;;264.53;37.37;;;51.40;2227.20;;;;;;5076316;28;20028;-59
2021/12/28 03:30:19;;;;;;;96.50;27.13;;;51.40;2227.20;;;;;;5076124;28;20433;-59
2021/12/28 03:32:46;;;;;;;166.93;29.90;;;51.50;2227.20;;;;;;5076278;28;20016;-64
2021/12/28 03:35:14;;;;;;;97.83;27.70;;;51.50;2227.20;;;;;;5076320;28;20020;-59
2021/12/28 03:37:41;;;;;;;88.13;25.53;;;51.50;2227.20;;;;;;5076261;28;20029;-59
2021/12/28 03:40:11;;;;;;;218.13;35.20;;;51.50;2227.20;;;;;;5076049;28;20028;-59
2021/12/28 03:42:37;;;;;;;210.60;32.90;;;51.50;2227.20;;;;;;5076045;28;20021;-66
2021/12/28 03:45:06;;;;;;;85.73;29.10;;;51.50;2227.20;;;;;;5076449;28;20028;-59
2021/12/28 03:47:32;;;;;;;62.80;24.70;;;51.50;2227.20;;;;;;5076299;28;20021;-59
2021/12/28 03:49:58;;;;;;;80.40;25.33;;;51.60;2227.20;;;;;;5075319;28;20054;-58
2021/12/28 03:52:24;;;;;;;82.87;25.33;;;51.50;2227.20;;;;;;5075870;28;20028;-59
2021/12/28 03:54:50;;;;;;;84.60;26.83;;;51.60;2227.20;;;;;;5075743;28;20031;-65
2021/12/28 03:57:16;;;;;;;95.80;25.13;;;51.70;2227.20;;;;;;5075780;28;20134;-65
2021/12/28 03:59:42;;;;;;;56.83;22.90;;;51.50;2227.20;;;;;;5075902;28;20032;-59
2021/12/28 04:02:08;;;;;;;154.57;36.07;;;51.50;2227.20;;;;;;5075719;28;20083;-59
2021/12/28 04:04:34;;;;;;;75.07;26.47;;;51.50;2227.20;;;;;;5074492;28;20020;-58
2021/12/28 04:07:04;;;;;;;74.90;25.60;;;51.50;2227.20;;;;;;5075703;28;20507;-65
2021/12/28 04:12:31;;;;;;;82.33;26.40;;;51.60;2227.20;;;;;;5053501;28;20040;-61
2021/12/28 04:14:58;;;;;;;109.73;26.80;;;51.60;2227.20;;;;;;5053391;28;20073;-65
2021/12/28 04:17:26;;;;;;;220.07;32.03;;;51.70;2227.20;;;;;;5053460;28;20037;-59
2021/12/28 04:19:52;;;;;;;105.20;26.03;;;51.60;2227.20;;;;;;5053988;28;20151;-59
2021/12/28 04:22:18;;;;;;;84.80;28.87;;;51.60;2227.20;;;;;;5053306;28;20070;-65
2021/12/28 04:24:44;;;;;;;336.53;36.50;;;51.60;2227.20;;;;;;5053239;28;20029;-59
2021/12/28 04:27:10;;;;;;;185.60;34.90;;;51.70;2227.20;;;;;;5053323;28;20120;-59
2021/12/28 04:29:36;;;;;;;206.07;36.33;;;51.70;2227.20;;;;;;5053333;28;20107;-58
2021/12/28 04:32:03;;;;;;;148.90;34.63;;;51.60;2227.20;;;;;;5052930;28;20079;-59
2021/12/28 04:34:29;;;;;;;197.40;35.93;;;51.50;2227.20;;;;;;5053309;28;20163;-58
2021/12/28 04:36:54;;;;;;;140.23;33.07;;;51.40;2227.20;;;;;;5053054;28;20115;-59
2021/12/28 04:39:20;;;;;;;151.90;34.97;;;51.40;2227.20;;;;;;5053361;28;20041;-65
2021/12/28 04:41:46;;;;;;;148.20;32.93;;;51.40;2227.20;;;;;;5052930;28;20052;-59
2021/12/28 04:44:13;;;;;;;289.90;38.80;;;51.30;2227.20;;;;;;5053048;28;20108;-59
2021/12/28 04:46:40;;;;;;;207.10;39.20;;;51.40;2227.20;;;;;;5065593;28;20369;-58
2021/12/28 04:49:06;;;;;;;127.90;34.03;;;51.40;2227.20;;;;;;5075500;28;20024;-58
2021/12/28 04:51:32;;;;;;;175.43;35.80;;;51.40;2227.20;;;;;;5075235;28;20480;-59
2021/12/28 04:54:01;;;;;;;167.00;35.30;;;51.50;2227.20;;;;;;5074758;28;20094;-65
2021/12/28 04:56:27;;;;;;;119.13;33.53;;;51.50;2227.20;;;;;;5075062;28;20060;-59
2021/12/28 04:58:53;;;;;;;244.43;40.73;;;51.60;2227.20;;;;;;5074713;28;20055;-59
2021/12/28 05:01:19;;;;;;;167.63;38.77;;;51.60;2227.20;;;;;;5073856;28;20048;-59
2021/12/28 05:03:44;;;;;;;150.13;35.73;;;51.60;2227.20;;;;;;5074560;28;20028;-59
2021/12/28 05:06:10;;;;;;;94.97;31.13;;;51.60;2227.20;;;;;;5074183;28;20036;-66
2021/12/28 05:08:39;;;;;;;87.23;27.47;;;51.60;2227.20;;;;;;5074462;28;20412;-59
2021/12/28 05:11:05;;;;;;;95.40;28.43;;;51.60;2227.20;;;;;;5074509;28;20054;-59
2021/12/28 05:13:31;;;;;;;79.23;26.03;;;51.60;2227.20;;;;;;5074272;28;20029;-58
2021/12/28 05:15:57;;;;;;;82.90;25.33;;;51.60;2227.20;;;;;;5072839;28;20044;-58
2021/12/28 05:18:22;;;;;;;100.13;29.20;;;51.60;2227.20;;;;;;5072696;28;20031;-65
2021/12/28 05:20:48;;;;;;;86.40;29.17;;;51.50;2227.20;;;;;;5073721;28;20465;-66
2021/12/28 05:23:14;;;;;;;118.60;31.10;;;51.60;2227.20;;;;;;5073695;28;20031;-59
2021/12/28 05:25:40;;;;;;;145.00;34.63;;;51.60;2227.20;;;;;;5073996;28;20029;-62
2021/12/28 05:28:07;;;;;;;94.43;29.33;;;51.50;2227.20;;;;;;5070989;28;20485;-58
2021/12/28 05:30:34;;;;;;;73.80;28.17;;;51.50;2227.20;;;;;;5073706;28;20049;-57
2021/12/28 05:33:00;;;;;;;65.23;25.70;;;51.50;2227.20;;;;;;5073519;28;20063;-59
2021/12/28 05:35:26;;;;;;;72.87;26.43;;;51.40;2227.20;;;;;;5073425;28;20029;-58
2021/12/28 05:37:52;;;;;;;69.83;26.20;;;51.50;2227.20;;;;;;5073898;28;20465;-58
2021/12/28 05:40:18;;;;;;;76.67;27.50;;;51.50;2227.20;;;;;;5073629;28;20477;-58
2021/12/28 05:42:44;;;;;;;55.20;24.10;;;51.50;2227.20;;;;;;5073541;28;20028;-58
2021/12/28 05:45:11;;;;;;;79.50;24.10;;;51.50;2227.20;;;;;;5073531;28;20099;-58
2021/12/28 05:47:37;;;;;;;142.97;26.53;;;51.40;2227.20;;;;;;5073402;28;20036;-58
2021/12/28 05:50:05;;;;;;;116.13;24.83;;;51.40;2227.20;;;;;;5073552;28;20024;-58
2021/12/28 05:52:31;;;;;;;104.47;25.80;;;51.30;2227.20;;;;;;5073544;28;20082;-58
2021/12/28 05:54:57;;;;;;;193.50;32.90;;;51.40;2227.20;;;;;;5073476;28;20424;-65
2021/12/28 05:57:24;;;;;;;146.33;30.07;;;51.30;2227.20;;;;;;5073160;28;20487;-64
2021/12/28 05:59:50;;;;;;;183.23;36.70;;;51.20;2227.20;;;;;;5073499;28;20024;-57
2021/12/28 06:02:16;;;;;;;83.30;28.70;;;51.20;2227.20;;;;;;5073151;28;20033;-58
2021/12/28 06:04:42;;;;;;;118.97;26.53;;;51.30;2227.20;;;;;;5073292;28;20100;-58
2021/12/28 06:07:08;;;;;;;128.40;26.40;;;51.30;2227.20;;;;;;5073502;28;20028;-58
2021/12/28 06:09:34;;;;;;;78.00;25.00;;;51.30;2227.20;;;;;;5073266;28;20388;-59
2021/12/28 06:12:00;;;;;;;129.83;28.50;;;51.30;2227.20;;;;;;5073312;28;20029;-58
2021/12/28 06:14:25;;;;;;;105.33;29.93;;;51.40;2227.20;;;;;;5073288;28;20029;-62
2021/12/28 06:16:51;;;;;;;169.50;39.50;;;51.30;2227.20;;;;;;5073373;28;20078;-64
2021/12/28 06:21:43;;;;;;;129.80;33.57;;;51.30;2227.20;;;;;;5066249;28;20100;-58
2021/12/28 06:24:09;;;;;;;160.37;39.80;;;51.20;2227.20;;;;;;5073001;28;20078;-58
2021/12/28 06:26:35;;;;;;;112.27;38.87;;;51.30;2227.20;;;;;;5072819;28;20070;-58
2021/12/28 06:29:04;;;;;;;125.17;38.83;;;51.40;2227.20;;;;;;5073100;28;20050;-64
2021/12/28 06:31:30;;;;;;;167.13;65.27;;;51.40;2227.20;;;;;;5072911;28;20564;-65
2021/12/28 06:33:58;;;;;;;220.00;61.40;;;51.50;2227.20;;;;;;5072876;28;20056;-65
2021/12/28 06:36:25;;;;;;;263.53;65.33;;;51.50;2227.20;;;;;;5073131;28;20031;-65
2021/12/28 06:38:51;;;;;;;135.57;51.00;;;51.60;2227.20;;;;;;5073041;28;20028;-63
2021/12/28 06:41:17;;;;;;;82.17;30.27;;;51.70;2227.20;;;;;;5071707;28;20097;-59
2021/12/28 06:43:43;;;;;;;168.07;35.53;;;51.70;2227.20;;;;;;5071569;28;20536;-64
2021/12/28 06:46:09;;;;;;;102.87;30.67;;;51.70;2227.20;;;;;;5071498;28;20509;-59
2021/12/28 06:48:35;;;;;;;168.33;34.60;;;51.80;2227.20;;;;;;5071968;28;20028;-58
2021/12/28 06:51:01;;;;;;;169.73;33.03;;;51.70;2227.20;;;;;;5072024;28;20033;-58
2021/12/28 06:53:27;;;;;;;235.37;39.90;;;51.50;2227.20;;;;;;5071975;28;20029;-57
2021/12/28 06:55:53;;;;;;;171.27;42.57;;;51.50;2227.20;;;;;;5071776;28;20108;-58
2021/12/28 06:58:18;;;;;;;113.57;42.27;;;51.50;2227.20;;;;;;5072031;28;20028;-58
2021/12/28 07:00:45;;;;;;;118.43;46.23;;;51.60;2227.20;;;;;;5071558;28;20542;-59
2021/12/28 07:03:11;;;;;;;232.77;39.73;;;51.70;2227.20;;;;;;5071520;28;20024;-58
2021/12/28 07:05:36;;;;;;;120.03;38.80;;;51.60;2227.20;;;;;;5071112;28;20388;-58
2021/12/28 07:08:02;;;;;;;171.87;50.60;;;51.70;2227.20;;;;;;5071491;28;20024;-58
2021/12/28 07:10:29;;;;;;;207.03;81.70;;;51.70;2227.20;;;;;;5071368;28;20119;-59
2021/12/28 07:12:54;;;;;;;160.67;63.37;;;51.80;2227.20;;;;;;5071790;28;20032;-58
2021/12/28 07:15:21;;;;;;;163.03;38.70;;;51.80;2227.20;;;;;;5070875;28;20050;-58
2021/12/28 07:17:48;;;;;;;164.53;37.20;;;51.80;2227.20;;;;;;5071314;28;20036;-58
2021/12/28 07:20:14;;;;;;;133.67;53.83;;;51.80;2227.20;;;;;;5071597;28;20029;-58
2021/12/28 07:22:40;;;;;;;158.93;43.33;;;51.90;2227.20;;;;;;5071968;28;20036;-58
2021/12/28 07:25:08;;;;;;;159.83;40.13;;;51.80;2227.20;;;;;;5074233;28;20025;-58
2021/12/28 07:27:34;;;;;;;208.20;45.70;;;51.80;2227.20;;;;;;5074841;28;20094;-57
2021/12/28 07:30:00;;;;;;;186.00;45.13;;;51.80;2227.20;;;;;;5072215;28;20489;-58
2021/12/28 07:32:26;;;;;;;221.03;52.40;;;51.80;2227.20;;;;;;5075412;28;20082;-58
2021/12/28 07:34:52;;;;;;;361.77;76.97;;;51.70;2227.20;;;;;;5074965;28;20115;-57
2021/12/28 07:37:18;;;;;;;372.07;83.87;;;51.70;2227.20;;;;;;5075157;28;20024;-58
2021/12/28 07:39:43;;;;;;;317.27;72.03;;;51.80;2227.20;;;;;;5075341;28;20029;-66
2021/12/28 07:42:09;;;;;;;386.87;95.03;;;51.80;2227.20;;;;;;5075107;28;20810;-58
2021/12/28 07:44:36;;;;;;;416.37;93.60;;;51.80;2227.20;;;;;;5074982;28;20021;-58
2021/12/28 07:47:04;;;;;;;293.53;89.80;;;51.70;2227.20;;;;;;5075157;28;20480;-59
2021/12/28 07:49:31;;;;;;;762.10;158.33;;;51.80;2227.20;;;;;;5074688;28;20016;-63
2021/12/28 07:51:57;;;;;;;225.80;68.83;;;51.80;2227.20;;;;;;5074503;28;20020;-59
2021/12/28 07:54:23;;;;;;;193.37;59.33;;;51.80;2227.20;;;;;;5073306;28;20374;-63
2021/12/28 07:56:48;;;;;;;313.43;65.10;;;51.90;2227.20;;;;;;5074095;28;20035;-64
2021/12/28 07:59:15;;;;;;;263.63;59.23;;;52.00;2227.20;;;;;;5074289;28;20102;-58
2021/12/28 08:01:40;;;;;;;257.83;93.00;;;52.10;2227.20;;;;;;5074169;28;20040;-58
2021/12/28 08:04:06;;;;;;;277.50;93.97;;;52.10;2227.20;;;;;;5074080;28;20027;-58
2021/12/28 08:06:32;;;;;;;464.83;118.27;;;76.80;2227.20;;;;;;5074081;28;20022;-66
2021/12/28 08:08:58;;;;;;;484.07;107.13;;;76.80;2227.20;;;;;;5072779;28;20488;-64
2021/12/28 08:11:24;;;;;;;292.90;79.87;;;76.80;2227.20;;;;;;5072202;28;20086;-66
2021/12/28 08:13:51;;;;;;;248.10;73.27;;;76.80;2227.20;;;;;;5074068;28;20023;-61
2021/12/28 08:16:17;;;;;;;190.53;63.53;;;;;;;;;;5073682;28;20100;-60
2021/12/28 08:18:42;;;;;;;359.83;85.27;;;77.10;2227.20;;;;;;5073889;28;20056;-62
2021/12/28 08:21:09;;;;;;;431.67;80.90;;;;;;;;;;5074107;28;20060;-58
2021/12/28 08:23:34;;;;;;;228.57;86.13;;;77.10;2227.20;;;;;;5073333;28;20020;-66
2021/12/28 08:26:01;;;;;;;317.20;111.67;;;77.00;2227.20;;;;;;5072628;28;20030;-59
2021/12/28 08:28:27;;;;;;;245.20;113.67;;;77.00;2227.20;;;;;;5073330;28;20033;-65
2021/12/28 08:30:53;;;;;;;227.93;89.63;;;77.00;2227.20;;;;;;5072844;28;20052;-61
2021/12/28 08:33:19;;;;;;;181.90;79.53;;;77.00;2227.20;;;;;;5073058;28;20030;-58
2021/12/28 08:35:45;;;;;;;235.47;104.27;;;77.10;2227.20;;;;;;5072391;28;20473;-58
2021/12/28 08:38:12;;;;;;;297.77;100.40;;;77.10;2227.20;;;;;;5072979;28;20464;-58
2021/12/28 08:40:39;;;;;;;219.50;82.80;;;77.10;2227.20;;;;;;5073206;28;20764;-58
2021/12/28 08:43:06;;;;;;;167.90;69.20;;;77.10;2227.20;;;;;;5073779;28;20404;-57
2021/12/28 08:45:33;;;;;;;155.23;61.13;;;77.30;2227.20;;;;;;5072745;28;20047;-58
2021/12/28 08:47:59;;;;;;;158.47;62.43;;;77.30;2227.20;;;;;;5073097;28;20302;-59
2021/12/28 08:50:25;;;;;;;154.37;65.57;;;77.30;2227.20;;;;;;5071966;28;20056;-59
2021/12/28 08:52:51;;;;;;;147.13;68.73;;;77.30;2227.20;;;;;;5069593;28;20555;-58
2021/12/28 08:55:19;;;;;;;152.23;67.33;;;77.30;2227.20;;;;;;5072358;28;20457;-58
2021/12/28 08:57:45;;;;;;;138.90;65.77;;;77.30;2227.20;;;;;;5072322;28;20029;-57
2021/12/28 09:00:22;;;;;;;128.07;58.77;;;77.30;2227.20;;;;;;5069280;28;20616;-59
2021/12/28 09:02:51;;;;;;;163.60;67.73;;;77.30;2227.20;;;;;;5072615;28;20051;-58
2021/12/28 09:05:17;;;;;;;147.10;67.40;;;77.30;2227.20;;;;;;5072582;28;20393;-62
2021/12/28 09:07:44;;;;;;;153.37;72.20;;;77.30;2227.20;;;;;;5072190;28;20024;-57
2021/12/28 09:10:10;;;;;;;148.70;70.57;;;77.30;2227.20;;;;;;5072284;28;20020;-59
2021/12/28 09:12:37;;;;;;;138.85;65.22;;;77.40;2227.20;;;;;;5072103;28;20029;-58
2021/12/28 09:15:08;;;;;;;144.43;65.27;;;77.40;2227.20;;;;;;5072064;28;20024;-58
2021/12/28 09:17:35;;;;;;;115.53;52.83;;;77.40;2227.20;;;;;;5069346;28;20078;-57
2021/12/28 09:20:07;;;;;;;111.90;47.17;;;77.40;2227.20;;;;;;5071810;28;20023;-62
2021/12/28 09:22:33;;;;;;;104.83;47.23;;;77.30;2227.20;;;;;;5071776;28;20111;-60
2021/12/28 09:24:59;;;;;;;117.20;51.27;;;77.40;2227.20;;;;;;5071735;28;20103;-57
2021/12/28 09:27:25;;;;;;;120.87;50.00;;;77.40;2227.20;;;;;;5071306;28;20025;-57
2021/12/28 09:29:51;;;;;;;127.90;52.27;;;77.30;2227.20;;;;;;5071644;28;20031;-56
2021/12/28 09:32:18;;;;;;;147.70;59.63;;;77.30;2227.20;;;;;;5071568;28;20037;-57
2021/12/28 09:34:46;;;;;;;347.67;116.97;;;77.30;2227.20;;;;;;5071561;28;20020;-57
2021/12/28 09:37:12;;;;;;;398.13;189.77;;;77.30;2227.20;;;;;;5068682;28;20024;-56
2021/12/28 09:39:38;;;;;;;323.53;160.67;;;77.30;2227.20;;;;;;5071310;28;20025;-62
2021/12/28 09:42:04;;;;;;;168.90;88.20;;;77.30;2227.20;;;;;;5070164;28;20035;-58
2021/12/28 09:44:33;;;;;;;221.97;87.13;;;77.30;2227.20;;;;;;5068884;28;20429;-57
2021/12/28 09:47:00;;;;;;;185.07;77.67;;;77.30;2227.20;;;;;;5068851;28;20396;-57
2021/12/28 09:49:28;;;;;;;115.50;55.10;;;77.30;2227.20;;;;;;5070242;28;20076;-57
2021/12/28 09:51:58;;;;;;;143.90;65.73;;;77.40;2227.20;;;;;;5069455;28;20033;-58
2021/12/28 09:54:26;;;;;;;144.20;69.30;;;77.40;2227.20;;;;;;5071443;28;20035;-58
2021/12/28 09:56:53;;;;;;;164.13;71.07;;;77.50;2227.20;;;;;;5069594;28;20503;-63
2021/12/28 09:59:19;;;;;;;142.53;67.67;;;77.40;2227.20;;;;;;5070754;28;20038;-58
2021/12/28 10:01:44;;;;;;;178.00;84.90;;;77.50;2227.20;;;;;;5071875;28;20115;-58
2021/12/28 10:04:11;;;;;;;146.47;73.63;;;77.50;2227.20;;;;;;5072122;28;20021;-62
2021/12/28 10:06:36;;;;;;;209.93;101.90;;;77.70;2227.20;;;;;;5072047;28;20477;-57
2021/12/28 10:09:17;;;;;;;165.43;82.13;;;77.70;2227.20;;;;;;5072323;28;20025;-57
2021/12/28 10:11:53;;;;;;;173.60;81.23;;;102.60;2227.20;;;;;;5072739;28;20449;-57
2021/12/28 10:14:25;;;;;;;151.43;72.20;;;77.70;2227.20;;;;;;5072270;28;20028;-57
2021/12/28 10:17:01;;;;;;;131.57;63.67;;;77.70;2227.20;;;;;;5069601;28;20050;-57
2021/12/28 10:19:40;;;;;;;151.30;66.40;;;77.70;2227.20;;;;;;5071729;28;20024;-57
2021/12/28 10:22:34;;;;;;;198.37;82.87;;;77.60;2227.20;;;;;;5071961;28;20105;-61
2021/12/28 10:25:12;;;;;;;161.17;65.83;;;77.60;2227.20;;;;;;5071129;28;20070;-59
2021/12/28 10:28:05;;;;;;;148.83;66.43;;;77.60;2227.20;;;;;;5071476;28;20024;-59
2021/12/28 10:30:40;;;;;;;141.25;65.07;;;77.60;2227.20;;;;;;5072035;28;20048;-57
2021/12/28 10:33:08;;;;;;;122.93;61.38;;;77.70;2227.20;;;;;;5072105;28;20039;-56
2021/12/28 10:35:37;;;;;;;132.57;65.25;;;77.70;2227.20;;;;;;5071652;28;20099;-58
2021/12/28 10:38:06;;;;;;;126.53;67.30;;;102.40;2227.20;;;;;;5071365;28;20453;-57
2021/12/28 10:40:38;;;;;;;155.02;75.90;;;102.40;2227.20;;;;;;5071547;28;20043;-59
2021/12/28 10:43:06;;;;;;;124.60;66.90;;;102.40;2227.20;;;;;;5070618;28;20048;-56
2021/12/28 10:45:51;;;;;;;132.27;69.67;;;102.50;2227.20;;;;;;5070863;28;20063;-57
2021/12/28 10:48:20;;;;;;;118.10;68.03;;;102.60;2227.20;;;;;;5070762;28;20016;-57
2021/12/28 10:50:59;;;;;;;141.73;76.13;;;102.60;2227.20;;;;;;5071615;28;20033;-57
2021/12/28 10:53:36;;;;;;;165.03;86.13;;;102.60;2227.20;;;;;;5071063;28;20108;-57
2021/12/28 10:56:07;;;;;;;156.67;85.73;;;102.70;2227.20;;;;;;5072148;28;20128;-57
2021/12/28 10:58:39;;;;;;;161.77;89.72;;;102.70;2227.20;;;;;;5074179;28;20102;-57
2021/12/28 11:01:15;;;;;;;123.00;71.17;;;102.70;2227.20;;;;;;5072525;28;20041;-57
2021/12/28 11:03:44;;;;;;;146.33;83.77;;;102.70;2227.20;;;;;;5075711;28;20017;-59
2021/12/28 11:06:21;;;;;;;134.73;80.53;;;102.70;2227.20;;;;;;5075772;28;20031;-57
2021/12/28 11:08:50;;;;;;;130.10;78.65;;;102.70;2227.20;;;;;;5075724;28;20024;-57
2021/12/28 11:11:19;;;;;;;122.33;74.47;;;102.70;2227.20;;;;;;5076319;28;20107;-58
2021/12/28 11:13:46;;;;;;;125.30;71.95;;;102.80;2227.20;;;;;;5076581;28;20024;-57
2021/12/28 11:16:14;;;;;;;124.27;69.87;;;102.80;2227.20;;;;;;5076066;28;20036;-58
2021/12/28 11:18:45;;;;;;;137.50;78.75;;;102.80;2227.20;;;;;;5075538;28;20039;-57
2021/12/28 11:21:19;;;;;;;155.63;83.97;;;102.80;2227.20;;;;;;5076216;28;20032;-57
2021/12/28 11:23:47;;;;;;;;;;;102.80;2227.20;;;;;;5076324;28;20032;-57
2021/12/28 11:26:23;;;;;;;162.60;82.73;;;102.80;2227.20;;;;;;5075921;28;19904;-57
2021/12/28 11:28:58;;;;;;;158.63;81.63;;;102.80;2227.20;;;;;;5073417;28;20082;-58
2021/12/28 11:31:32;;;;;;;160.23;82.88;;;102.80;2227.20;;;;;;5075704;28;20055;-64
2021/12/28 11:34:25;;;;;;;174.07;87.15;;;102.90;2227.20;;;;;;5076190;28;20064;-58
2021/12/28 11:36:55;;;;;;;156.98;82.75;;;102.90;2227.20;;;;;;5072956;28;20032;-57
2021/12/28 11:39:25;;;;;;;216.85;126.35;;;103.00;2227.20;;;;;;5075468;28;20440;-58
2021/12/28 11:41:51;;;;;;;220.45;131.10;;;103.10;2227.20;;;;;;5076127;28;20048;-57
2021/12/28 11:44:19;;;;;;;177.63;107.57;;;102.90;2227.20;;;;;;5076167;28;20029;-58
2021/12/28 11:46:47;;;;;;;243.15;154.98;;;103.00;2227.20;;;;;;5075198;28;20064;-59
2021/12/28 11:49:14;;;;;;;128.43;78.80;;;103.00;2227.20;;;;;;5075275;28;20024;-58
2021/12/28 11:51:43;;;;;;;125.73;77.77;;;103.00;2227.20;;;;;;5074629;28;20029;-58
2021/12/28 11:54:11;;;;;;;125.25;76.68;;;103.10;2227.20;;;;;;5075708;28;20381;-58
2021/12/28 11:56:40;;;;;;;106.60;64.23;;;103.10;2227.20;;;;;;5075595;28;20025;-58
2021/12/28 11:59:10;;;;;;;106.68;61.58;;;103.20;2227.20;;;;;;5074556;28;20103;-58
2021/12/28 12:01:52;;;;;;;116.05;65.68;;;103.30;2227.20;;;;;;5075320;28;20089;-57
2021/12/28 12:04:30;;;;;;;129.77;82.10;;;103.20;2227.20;;;;;;5075380;28;20369;-59
2021/12/28 12:07:14;;;;;;;104.50;67.47;;;103.30;2227.20;;;;;;5074547;28;20029;-58
2021/12/28 12:09:49;;;;;;;132.55;80.18;;;103.20;2227.20;;;;;;5075250;28;20024;-58